Terminal Aerodrome Forecast
Issued by NWS Tuscon, AZ

Home | Current Version | Previous Version | Text Only | Print | Product List | Glossary On
Versions: 1 2 3 4 5 6 7 8 9 10 11 12 13 14 15 16 17 18 19 20 21 22 23 24 25
000
FTUS45 KTWC 162327
TAFTUS
TAF
KTUS 162327Z 1700/1724 33007KT P6SM SCT060 BKN250
     FM170600 14005KT P6SM FEW060 BKN250
     FM172100 31007KT P6SM SCT070 BKN250=

USA.gov is the U.S. government's official web portal to all federal, state and local government web resources and services.